sensor_id;sensor_type;location;lat;lon;timestamp;P1;durP1;ratioP1;P2;durP2;ratioP2
35188;SDS011;21762;54.480;18.556;2023-03-01T00:01:36;8.82;;;5.20;;
35188;SDS011;21762;54.480;18.556;2023-03-01T00:04:06;10.98;;;5.13;;
35188;SDS011;21762;54.480;18.556;2023-03-01T00:06:34;11.23;;;4.80;;
35188;SDS011;21762;54.480;18.556;2023-03-01T00:09:03;12.55;;;5.03;;
35188;SDS011;21762;54.480;18.556;2023-03-01T00:11:32;16.63;;;5.68;;
35188;SDS011;21762;54.480;18.556;2023-03-01T00:14:01;16.33;;;5.78;;
35188;SDS011;21762;54.480;18.556;2023-03-01T00:16:32;11.35;;;5.05;;
35188;SDS011;21762;54.480;18.556;2023-03-01T00:19:02;16.55;;;5.55;;
35188;SDS011;21762;54.480;18.556;2023-03-01T00:21:32;12.77;;;4.68;;
35188;SDS011;21762;54.480;18.556;2023-03-01T00:24:02;11.68;;;4.30;;
35188;SDS011;21762;54.480;18.556;2023-03-01T00:26:31;18.33;;;5.88;;
35188;SDS011;21762;54.480;18.556;2023-03-01T00:28:59;13.25;;;5.45;;
35188;SDS011;21762;54.480;18.556;2023-03-01T00:31:28;14.73;;;5.10;;
35188;SDS011;21762;54.480;18.556;2023-03-01T00:33:59;12.48;;;5.03;;
35188;SDS011;21762;54.480;18.556;2023-03-01T00:36:30;15.00;;;4.88;;
35188;SDS011;21762;54.480;18.556;2023-03-01T00:39:01;12.73;;;5.20;;
35188;SDS011;21762;54.480;18.556;2023-03-01T00:41:31;15.85;;;5.78;;
35188;SDS011;21762;54.480;18.556;2023-03-01T00:44:01;13.18;;;5.13;;
35188;SDS011;21762;54.480;18.556;2023-03-01T00:46:30;10.90;;;4.63;;
35188;SDS011;21762;54.480;18.556;2023-03-01T00:48:59;12.10;;;5.15;;
35188;SDS011;21762;54.480;18.556;2023-03-01T00:51:29;15.52;;;5.32;;
35188;SDS011;21762;54.480;18.556;2023-03-01T00:53:59;9.82;;;4.80;;
35188;SDS011;21762;54.480;18.556;2023-03-01T00:56:28;11.50;;;5.53;;
35188;SDS011;21762;54.480;18.556;2023-03-01T00:58:57;11.50;;;5.45;;
35188;SDS011;21762;54.480;18.556;2023-03-01T01:01:27;11.57;;;5.47;;
35188;SDS011;21762;54.480;18.556;2023-03-01T01:03:58;14.93;;;5.25;;
35188;SDS011;21762;54.480;18.556;2023-03-01T01:06:28;16.50;;;5.53;;
35188;SDS011;21762;54.480;18.556;2023-03-01T01:08:59;15.93;;;5.53;;
35188;SDS011;21762;54.480;18.556;2023-03-01T01:11:28;15.82;;;5.47;;
35188;SDS011;21762;54.480;18.556;2023-03-01T01:13:57;13.00;;;5.97;;
35188;SDS011;21762;54.480;18.556;2023-03-01T01:16:28;12.32;;;4.90;;
35188;SDS011;21762;54.480;18.556;2023-03-01T01:18:57;11.38;;;5.57;;
35188;SDS011;21762;54.480;18.556;2023-03-01T01:21:27;14.80;;;5.43;;
35188;SDS011;21762;54.480;18.556;2023-03-01T01:23:56;19.80;;;6.65;;
35188;SDS011;21762;54.480;18.556;2023-03-01T01:26:27;15.18;;;5.75;;
35188;SDS011;21762;54.480;18.556;2023-03-01T01:28:56;16.92;;;5.78;;
35188;SDS011;21762;54.480;18.556;2023-03-01T01:31:26;13.20;;;5.03;;
35188;SDS011;21762;54.480;18.556;2023-03-01T01:33:56;14.00;;;5.45;;
35188;SDS011;21762;54.480;18.556;2023-03-01T01:36:25;14.07;;;6.13;;
35188;SDS011;21762;54.480;18.556;2023-03-01T01:38:54;11.55;;;5.57;;
35188;SDS011;21762;54.480;18.556;2023-03-01T01:41:22;12.77;;;5.57;;
35188;SDS011;21762;54.480;18.556;2023-03-01T01:46:41;16.20;;;5.65;;
35188;SDS011;21762;54.480;18.556;2023-03-01T01:49:15;14.80;;;6.15;;
35188;SDS011;21762;54.480;18.556;2023-03-01T01:51:48;18.33;;;6.40;;
35188;SDS011;21762;54.480;18.556;2023-03-01T01:54:19;16.58;;;6.45;;
35188;SDS011;21762;54.480;18.556;2023-03-01T01:56:49;16.15;;;7.35;;
35188;SDS011;21762;54.480;18.556;2023-03-01T01:59:22;19.15;;;7.03;;
35188;SDS011;21762;54.480;18.556;2023-03-01T02:01:51;15.32;;;7.90;;
35188;SDS011;21762;54.480;18.556;2023-03-01T02:04:20;19.10;;;7.15;;
35188;SDS011;21762;54.480;18.556;2023-03-01T02:06:51;19.55;;;7.20;;
35188;SDS011;21762;54.480;18.556;2023-03-01T02:09:22;20.60;;;7.45;;
35188;SDS011;21762;54.480;18.556;2023-03-01T02:11:51;28.88;;;10.73;;
35188;SDS011;21762;54.480;18.556;2023-03-01T02:14:21;20.17;;;7.93;;
35188;SDS011;21762;54.480;18.556;2023-03-01T02:16:49;21.75;;;9.70;;
35188;SDS011;21762;54.480;18.556;2023-03-01T02:19:22;19.08;;;9.23;;
35188;SDS011;21762;54.480;18.556;2023-03-01T02:21:59;23.30;;;7.75;;
35188;SDS011;21762;54.480;18.556;2023-03-01T02:24:35;20.67;;;9.23;;
35188;SDS011;21762;54.480;18.556;2023-03-01T02:27:09;22.15;;;7.63;;
35188;SDS011;21762;54.480;18.556;2023-03-01T02:29:39;17.58;;;8.38;;
35188;SDS011;21762;54.480;18.556;2023-03-01T02:32:10;21.58;;;7.38;;
35188;SDS011;21762;54.480;18.556;2023-03-01T02:34:40;21.35;;;8.70;;
35188;SDS011;21762;54.480;18.556;2023-03-01T02:37:11;16.85;;;8.13;;
35188;SDS011;21762;54.480;18.556;2023-03-01T02:39:42;19.35;;;7.82;;
35188;SDS011;21762;54.480;18.556;2023-03-01T02:42:13;18.93;;;8.80;;
35188;SDS011;21762;54.480;18.556;2023-03-01T02:44:45;22.23;;;8.43;;
35188;SDS011;21762;54.480;18.556;2023-03-01T02:47:13;24.98;;;9.80;;
35188;SDS011;21762;54.480;18.556;2023-03-01T02:49:41;26.52;;;9.73;;
35188;SDS011;21762;54.480;18.556;2023-03-01T02:52:20;31.65;;;10.90;;
35188;SDS011;21762;54.480;18.556;2023-03-01T02:55:03;27.77;;;11.07;;
35188;SDS011;21762;54.480;18.556;2023-03-01T02:57:34;24.05;;;8.65;;
35188;SDS011;21762;54.480;18.556;2023-03-01T03:00:07;28.73;;;11.70;;
35188;SDS011;21762;54.480;18.556;2023-03-01T03:02:46;21.80;;;10.73;;
35188;SDS011;21762;54.480;18.556;2023-03-01T03:05:22;24.58;;;11.35;;
35188;SDS011;21762;54.480;18.556;2023-03-01T03:07:54;25.15;;;11.20;;
35188;SDS011;21762;54.480;18.556;2023-03-01T03:10:24;25.17;;;10.70;;
35188;SDS011;21762;54.480;18.556;2023-03-01T03:12:55;30.00;;;13.02;;
35188;SDS011;21762;54.480;18.556;2023-03-01T03:15:26;28.90;;;13.10;;
35188;SDS011;21762;54.480;18.556;2023-03-01T03:17:56;25.85;;;11.35;;
35188;SDS011;21762;54.480;18.556;2023-03-01T03:20:26;29.27;;;12.00;;
35188;SDS011;21762;54.480;18.556;2023-03-01T03:22:56;31.95;;;12.65;;
35188;SDS011;21762;54.480;18.556;2023-03-01T03:25:25;32.13;;;13.25;;
35188;SDS011;21762;54.480;18.556;2023-03-01T03:27:54;28.77;;;11.45;;
35188;SDS011;21762;54.480;18.556;2023-03-01T03:30:27;25.88;;;10.82;;
35188;SDS011;21762;54.480;18.556;2023-03-01T03:32:57;30.75;;;12.02;;
35188;SDS011;21762;54.480;18.556;2023-03-01T03:35:27;22.75;;;10.52;;
35188;SDS011;21762;54.480;18.556;2023-03-01T03:37:57;29.75;;;11.18;;
35188;SDS011;21762;54.480;18.556;2023-03-01T03:40:34;24.38;;;10.68;;
35188;SDS011;21762;54.480;18.556;2023-03-01T03:43:04;27.07;;;10.03;;
35188;SDS011;21762;54.480;18.556;2023-03-01T03:45:35;23.25;;;9.23;;
35188;SDS011;21762;54.480;18.556;2023-03-01T03:48:05;23.67;;;9.80;;
35188;SDS011;21762;54.480;18.556;2023-03-01T03:50:34;26.13;;;9.65;;
35188;SDS011;21762;54.480;18.556;2023-03-01T03:53:03;21.23;;;9.38;;
35188;SDS011;21762;54.480;18.556;2023-03-01T03:55:33;28.08;;;9.68;;
35188;SDS011;21762;54.480;18.556;2023-03-01T03:58:06;26.67;;;10.35;;
35188;SDS011;21762;54.480;18.556;2023-03-01T04:00:38;24.88;;;9.55;;
35188;SDS011;21762;54.480;18.556;2023-03-01T04:03:07;25.88;;;11.07;;
35188;SDS011;21762;54.480;18.556;2023-03-01T04:05:36;27.83;;;10.95;;
35188;SDS011;21762;54.480;18.556;2023-03-01T04:08:05;21.88;;;10.25;;
35188;SDS011;21762;54.480;18.556;2023-03-01T04:10:35;30.60;;;10.68;;
35188;SDS011;21762;54.480;18.556;2023-03-01T04:13:05;24.40;;;10.63;;
35188;SDS011;21762;54.480;18.556;2023-03-01T04:15:34;30.02;;;10.95;;
35188;SDS011;21762;54.480;18.556;2023-03-01T04:18:04;33.45;;;10.27;;
35188;SDS011;21762;54.480;18.556;2023-03-01T04:20:34;23.70;;;9.63;;
35188;SDS011;21762;54.480;18.556;2023-03-01T04:23:03;26.95;;;11.25;;
35188;SDS011;21762;54.480;18.556;2023-03-01T04:25:40;31.73;;;11.55;;
35188;SDS011;21762;54.480;18.556;2023-03-01T04:28:09;25.00;;;9.88;;
35188;SDS011;21762;54.480;18.556;2023-03-01T04:30:38;28.05;;;11.35;;
35188;SDS011;21762;54.480;18.556;2023-03-01T04:33:09;32.13;;;11.02;;
35188;SDS011;21762;54.480;18.556;2023-03-01T04:35:38;24.23;;;10.73;;
35188;SDS011;21762;54.480;18.556;2023-03-01T04:38:07;33.50;;;12.73;;
35188;SDS011;21762;54.480;18.556;2023-03-01T04:40:36;25.98;;;10.65;;
35188;SDS011;21762;54.480;18.556;2023-03-01T04:43:04;26.17;;;10.45;;
35188;SDS011;21762;54.480;18.556;2023-03-01T04:45:33;30.60;;;11.45;;
35188;SDS011;21762;54.480;18.556;2023-03-01T04:48:02;27.23;;;10.57;;
35188;SDS011;21762;54.480;18.556;2023-03-01T04:50:32;33.63;;;11.60;;
35188;SDS011;21762;54.480;18.556;2023-03-01T04:53:01;31.98;;;13.13;;
35188;SDS011;21762;54.480;18.556;2023-03-01T04:55:29;27.10;;;11.48;;
35188;SDS011;21762;54.480;18.556;2023-03-01T04:57:58;35.60;;;14.57;;
35188;SDS011;21762;54.480;18.556;2023-03-01T05:00:26;37.92;;;14.23;;
35188;SDS011;21762;54.480;18.556;2023-03-01T05:02:55;35.10;;;13.70;;
35188;SDS011;21762;54.480;18.556;2023-03-01T05:05:26;36.65;;;14.00;;
35188;SDS011;21762;54.480;18.556;2023-03-01T05:07:57;31.53;;;15.43;;
35188;SDS011;21762;54.480;18.556;2023-03-01T05:10:27;30.33;;;14.10;;
35188;SDS011;21762;54.480;18.556;2023-03-01T05:12:57;28.80;;;12.98;;
35188;SDS011;21762;54.480;18.556;2023-03-01T05:15:26;30.05;;;10.80;;
35188;SDS011;21762;54.480;18.556;2023-03-01T05:17:55;27.35;;;10.65;;
35188;SDS011;21762;54.480;18.556;2023-03-01T05:20:25;31.90;;;12.27;;
35188;SDS011;21762;54.480;18.556;2023-03-01T05:22:54;30.50;;;11.82;;
35188;SDS011;21762;54.480;18.556;2023-03-01T05:25:25;32.17;;;11.77;;
35188;SDS011;21762;54.480;18.556;2023-03-01T05:27:54;31.98;;;10.93;;
35188;SDS011;21762;54.480;18.556;2023-03-01T05:30:22;27.40;;;11.80;;
35188;SDS011;21762;54.480;18.556;2023-03-01T05:32:50;27.65;;;11.90;;
35188;SDS011;21762;54.480;18.556;2023-03-01T05:35:22;27.08;;;12.05;;
35188;SDS011;21762;54.480;18.556;2023-03-01T05:37:51;25.95;;;11.73;;
35188;SDS011;21762;54.480;18.556;2023-03-01T05:40:21;30.35;;;12.50;;
35188;SDS011;21762;54.480;18.556;2023-03-01T05:42:52;24.08;;;11.05;;
35188;SDS011;21762;54.480;18.556;2023-03-01T05:45:22;32.50;;;12.35;;
35188;SDS011;21762;54.480;18.556;2023-03-01T05:47:53;26.15;;;10.55;;
35188;SDS011;21762;54.480;18.556;2023-03-01T05:50:22;26.88;;;11.15;;
35188;SDS011;21762;54.480;18.556;2023-03-01T05:52:53;34.25;;;13.35;;
35188;SDS011;21762;54.480;18.556;2023-03-01T05:55:27;29.05;;;12.75;;
35188;SDS011;21762;54.480;18.556;2023-03-01T05:57:57;35.30;;;13.65;;
35188;SDS011;21762;54.480;18.556;2023-03-01T06:00:27;34.53;;;12.70;;
35188;SDS011;21762;54.480;18.556;2023-03-01T06:02:57;42.08;;;14.45;;
35188;SDS011;21762;54.480;18.556;2023-03-01T06:05:26;38.97;;;14.13;;
35188;SDS011;21762;54.480;18.556;2023-03-01T06:07:55;28.92;;;12.50;;
35188;SDS011;21762;54.480;18.556;2023-03-01T06:10:24;32.20;;;12.25;;
35188;SDS011;21762;54.480;18.556;2023-03-01T06:12:55;30.02;;;12.93;;
35188;SDS011;21762;54.480;18.556;2023-03-01T06:15:24;30.88;;;12.43;;
35188;SDS011;21762;54.480;18.556;2023-03-01T06:17:53;29.80;;;11.93;;
35188;SDS011;21762;54.480;18.556;2023-03-01T06:20:25;25.17;;;10.48;;
35188;SDS011;21762;54.480;18.556;2023-03-01T06:22:55;26.60;;;11.10;;
35188;SDS011;21762;54.480;18.556;2023-03-01T06:25:24;28.08;;;11.40;;
35188;SDS011;21762;54.480;18.556;2023-03-01T06:27:52;30.45;;;11.73;;
35188;SDS011;21762;54.480;18.556;2023-03-01T06:30:23;25.77;;;12.25;;
35188;SDS011;21762;54.480;18.556;2023-03-01T06:32:52;23.13;;;9.68;;
35188;SDS011;21762;54.480;18.556;2023-03-01T06:35:27;23.95;;;11.18;;
35188;SDS011;21762;54.480;18.556;2023-03-01T06:37:57;28.45;;;13.75;;
35188;SDS011;21762;54.480;18.556;2023-03-01T06:40:26;25.75;;;10.35;;
35188;SDS011;21762;54.480;18.556;2023-03-01T06:42:56;26.33;;;10.55;;
35188;SDS011;21762;54.480;18.556;2023-03-01T06:45:25;24.25;;;9.23;;
35188;SDS011;21762;54.480;18.556;2023-03-01T06:48:00;26.88;;;9.80;;
35188;SDS011;21762;54.480;18.556;2023-03-01T06:50:30;20.33;;;8.50;;
35188;SDS011;21762;54.480;18.556;2023-03-01T06:52:59;25.48;;;9.90;;
35188;SDS011;21762;54.480;18.556;2023-03-01T06:55:27;24.75;;;9.95;;
35188;SDS011;21762;54.480;18.556;2023-03-01T06:57:58;21.83;;;8.80;;
35188;SDS011;21762;54.480;18.556;2023-03-01T07:00:27;19.42;;;9.40;;
35188;SDS011;21762;54.480;18.556;2023-03-01T07:02:58;25.63;;;10.60;;
35188;SDS011;21762;54.480;18.556;2023-03-01T07:05:28;21.30;;;10.02;;
35188;SDS011;21762;54.480;18.556;2023-03-01T07:07:57;23.83;;;9.27;;
35188;SDS011;21762;54.480;18.556;2023-03-01T07:10:26;20.08;;;9.00;;
35188;SDS011;21762;54.480;18.556;2023-03-01T07:12:55;22.88;;;10.95;;
35188;SDS011;21762;54.480;18.556;2023-03-01T07:15:25;20.70;;;9.82;;
35188;SDS011;21762;54.480;18.556;2023-03-01T07:17:55;18.15;;;8.05;;
35188;SDS011;21762;54.480;18.556;2023-03-01T07:20:24;18.88;;;9.02;;
35188;SDS011;21762;54.480;18.556;2023-03-01T07:22:53;23.60;;;9.15;;
35188;SDS011;21762;54.480;18.556;2023-03-01T07:25:23;22.95;;;10.25;;
35188;SDS011;21762;54.480;18.556;2023-03-01T07:27:51;20.90;;;8.40;;
35188;SDS011;21762;54.480;18.556;2023-03-01T07:30:21;20.95;;;8.57;;
35188;SDS011;21762;54.480;18.556;2023-03-01T07:32:54;19.25;;;9.45;;
35188;SDS011;21762;54.480;18.556;2023-03-01T07:35:23;22.17;;;10.18;;
35188;SDS011;21762;54.480;18.556;2023-03-01T07:37:52;19.20;;;8.30;;
35188;SDS011;21762;54.480;18.556;2023-03-01T07:40:20;15.55;;;8.13;;
35188;SDS011;21762;54.480;18.556;2023-03-01T07:42:49;13.80;;;7.30;;
35188;SDS011;21762;54.480;18.556;2023-03-01T07:45:17;24.20;;;8.15;;
35188;SDS011;21762;54.480;18.556;2023-03-01T07:47:46;15.55;;;6.70;;
35188;SDS011;21762;54.480;18.556;2023-03-01T07:50:16;16.88;;;7.35;;
35188;SDS011;21762;54.480;18.556;2023-03-01T07:52:45;17.92;;;8.68;;
35188;SDS011;21762;54.480;18.556;2023-03-01T07:55:15;16.27;;;7.10;;
35188;SDS011;21762;54.480;18.556;2023-03-01T07:57:44;14.00;;;6.85;;
35188;SDS011;21762;54.480;18.556;2023-03-01T08:00:13;11.75;;;6.57;;
35188;SDS011;21762;54.480;18.556;2023-03-01T08:02:42;11.40;;;5.50;;
35188;SDS011;21762;54.480;18.556;2023-03-01T08:05:10;14.73;;;6.55;;
35188;SDS011;21762;54.480;18.556;2023-03-01T08:07:41;13.60;;;6.93;;
35188;SDS011;21762;54.480;18.556;2023-03-01T08:10:10;13.20;;;7.03;;
35188;SDS011;21762;54.480;18.556;2023-03-01T08:12:39;15.55;;;7.85;;
35188;SDS011;21762;54.480;18.556;2023-03-01T08:15:08;18.73;;;7.07;;
35188;SDS011;21762;54.480;18.556;2023-03-01T08:17:37;15.98;;;6.80;;
35188;SDS011;21762;54.480;18.556;2023-03-01T08:20:06;14.88;;;7.72;;
35188;SDS011;21762;54.480;18.556;2023-03-01T08:22:41;14.80;;;7.82;;
35188;SDS011;21762;54.480;18.556;2023-03-01T08:25:09;13.27;;;7.55;;
35188;SDS011;21762;54.480;18.556;2023-03-01T08:27:38;13.02;;;6.40;;
35188;SDS011;21762;54.480;18.556;2023-03-01T08:30:07;12.93;;;6.35;;
35188;SDS011;21762;54.480;18.556;2023-03-01T08:32:37;11.88;;;5.97;;
35188;SDS011;21762;54.480;18.556;2023-03-01T08:35:06;13.80;;;6.85;;
35188;SDS011;21762;54.480;18.556;2023-03-01T08:37:35;13.73;;;6.32;;
35188;SDS011;21762;54.480;18.556;2023-03-01T08:40:06;16.50;;;6.18;;
35188;SDS011;21762;54.480;18.556;2023-03-01T08:42:36;12.13;;;6.07;;
35188;SDS011;21762;54.480;18.556;2023-03-01T08:45:05;14.75;;;7.10;;
35188;SDS011;21762;54.480;18.556;2023-03-01T08:47:35;12.18;;;5.75;;
35188;SDS011;21762;54.480;18.556;2023-03-01T08:50:04;12.02;;;6.20;;
35188;SDS011;21762;54.480;18.556;2023-03-01T08:52:33;18.48;;;8.80;;
35188;SDS011;21762;54.480;18.556;2023-03-01T08:55:02;20.88;;;8.02;;
35188;SDS011;21762;54.480;18.556;2023-03-01T08:57:33;16.70;;;7.93;;
35188;SDS011;21762;54.480;18.556;2023-03-01T09:00:02;23.38;;;8.98;;
35188;SDS011;21762;54.480;18.556;2023-03-01T09:02:35;21.80;;;9.02;;
35188;SDS011;21762;54.480;18.556;2023-03-01T09:05:04;22.92;;;9.63;;
35188;SDS011;21762;54.480;18.556;2023-03-01T09:07:33;16.58;;;7.15;;
35188;SDS011;21762;54.480;18.556;2023-03-01T09:10:02;13.75;;;5.50;;
35188;SDS011;21762;54.480;18.556;2023-03-01T09:12:30;9.73;;;5.25;;
35188;SDS011;21762;54.480;18.556;2023-03-01T09:15:01;13.60;;;6.20;;
35188;SDS011;21762;54.480;18.556;2023-03-01T09:17:30;13.00;;;5.45;;
35188;SDS011;21762;54.480;18.556;2023-03-01T09:19:58;12.30;;;6.43;;
35188;SDS011;21762;54.480;18.556;2023-03-01T09:22:27;14.90;;;6.53;;
35188;SDS011;21762;54.480;18.556;2023-03-01T09:24:56;12.38;;;5.80;;
35188;SDS011;21762;54.480;18.556;2023-03-01T09:27:26;14.10;;;5.95;;
35188;SDS011;21762;54.480;18.556;2023-03-01T09:29:56;14.68;;;7.57;;
35188;SDS011;21762;54.480;18.556;2023-03-01T09:32:24;11.95;;;6.13;;
35188;SDS011;21762;54.480;18.556;2023-03-01T09:34:53;17.02;;;7.75;;
35188;SDS011;21762;54.480;18.556;2023-03-01T09:37:34;16.35;;;8.50;;
35188;SDS011;21762;54.480;18.556;2023-03-01T09:40:05;25.17;;;10.90;;
35188;SDS011;21762;54.480;18.556;2023-03-01T09:42:35;18.25;;;9.27;;
35188;SDS011;21762;54.480;18.556;2023-03-01T09:45:06;20.50;;;8.90;;
35188;SDS011;21762;54.480;18.556;2023-03-01T09:47:41;18.25;;;8.02;;
35188;SDS011;21762;54.480;18.556;2023-03-01T09:50:11;16.40;;;9.25;;
35188;SDS011;21762;54.480;18.556;2023-03-01T09:52:45;21.65;;;9.45;;
35188;SDS011;21762;54.480;18.556;2023-03-01T09:55:16;21.38;;;9.02;;
35188;SDS011;21762;54.480;18.556;2023-03-01T09:57:54;23.88;;;9.60;;
35188;SDS011;21762;54.480;18.556;2023-03-01T10:03:03;18.77;;;8.60;;
35188;SDS011;21762;54.480;18.556;2023-03-01T10:05:41;19.23;;;8.43;;
35188;SDS011;21762;54.480;18.556;2023-03-01T10:08:19;17.90;;;8.63;;
35188;SDS011;21762;54.480;18.556;2023-03-01T10:10:56;20.35;;;9.27;;
35188;SDS011;21762;54.480;18.556;2023-03-01T10:13:26;23.55;;;9.85;;
35188;SDS011;21762;54.480;18.556;2023-03-01T10:16:03;16.73;;;8.57;;
35188;SDS011;21762;54.480;18.556;2023-03-01T10:18:37;22.02;;;10.02;;
35188;SDS011;21762;54.480;18.556;2023-03-01T10:21:09;21.48;;;9.98;;
35188;SDS011;21762;54.480;18.556;2023-03-01T10:23:43;20.25;;;8.57;;
35188;SDS011;21762;54.480;18.556;2023-03-01T10:26:15;20.48;;;9.20;;
35188;SDS011;21762;54.480;18.556;2023-03-01T10:29:07;19.92;;;8.68;;
35188;SDS011;21762;54.480;18.556;2023-03-01T10:31:39;20.30;;;9.85;;
35188;SDS011;21762;54.480;18.556;2023-03-01T10:34:11;20.13;;;9.93;;
35188;SDS011;21762;54.480;18.556;2023-03-01T10:36:42;22.15;;;9.93;;
35188;SDS011;21762;54.480;18.556;2023-03-01T10:39:12;19.38;;;8.73;;
35188;SDS011;21762;54.480;18.556;2023-03-01T10:41:57;17.10;;;7.78;;
35188;SDS011;21762;54.480;18.556;2023-03-01T10:44:36;17.27;;;8.77;;
35188;SDS011;21762;54.480;18.556;2023-03-01T10:47:16;21.23;;;10.38;;
35188;SDS011;21762;54.480;18.556;2023-03-01T10:49:52;19.15;;;8.88;;
35188;SDS011;21762;54.480;18.556;2023-03-01T10:52:23;21.05;;;9.35;;
35188;SDS011;21762;54.480;18.556;2023-03-01T10:54:55;21.80;;;9.50;;
35188;SDS011;21762;54.480;18.556;2023-03-01T10:57:27;23.42;;;10.05;;
35188;SDS011;21762;54.480;18.556;2023-03-01T11:00:09;21.30;;;9.30;;
35188;SDS011;21762;54.480;18.556;2023-03-01T11:02:48;19.27;;;9.55;;
35188;SDS011;21762;54.480;18.556;2023-03-01T11:05:21;23.42;;;8.35;;
35188;SDS011;21762;54.480;18.556;2023-03-01T11:07:55;17.63;;;8.27;;
35188;SDS011;21762;54.480;18.556;2023-03-01T11:10:25;15.25;;;7.85;;
35188;SDS011;21762;54.480;18.556;2023-03-01T11:13:05;14.38;;;7.35;;
35188;SDS011;21762;54.480;18.556;2023-03-01T11:15:35;13.00;;;6.65;;
35188;SDS011;21762;54.480;18.556;2023-03-01T11:18:15;11.70;;;6.45;;
35188;SDS011;21762;54.480;18.556;2023-03-01T11:20:47;12.60;;;6.43;;
35188;SDS011;21762;54.480;18.556;2023-03-01T11:23:16;11.55;;;5.70;;
35188;SDS011;21762;54.480;18.556;2023-03-01T11:25:47;12.32;;;5.82;;
35188;SDS011;21762;54.480;18.556;2023-03-01T11:30:47;14.52;;;5.85;;
35188;SDS011;21762;54.480;18.556;2023-03-01T11:33:36;13.85;;;7.10;;
35188;SDS011;21762;54.480;18.556;2023-03-01T11:36:13;16.15;;;6.85;;
35188;SDS011;21762;54.480;18.556;2023-03-01T11:38:46;13.13;;;6.68;;
35188;SDS011;21762;54.480;18.556;2023-03-01T11:41:16;13.80;;;5.55;;
35188;SDS011;21762;54.480;18.556;2023-03-01T11:43:48;12.85;;;6.82;;
35188;SDS011;21762;54.480;18.556;2023-03-01T11:46:29;13.95;;;7.43;;
35188;SDS011;21762;54.480;18.556;2023-03-01T11:49:19;14.25;;;7.30;;
35188;SDS011;21762;54.480;18.556;2023-03-01T11:51:59;15.75;;;7.18;;
35188;SDS011;21762;54.480;18.556;2023-03-01T11:54:35;12.60;;;6.57;;
35188;SDS011;21762;54.480;18.556;2023-03-01T11:57:12;15.90;;;7.22;;
35188;SDS011;21762;54.480;18.556;2023-03-01T11:59:55;14.73;;;7.22;;
35188;SDS011;21762;54.480;18.556;2023-03-01T12:02:40;16.77;;;7.72;;
35188;SDS011;21762;54.480;18.556;2023-03-01T12:05:39;14.13;;;7.20;;
35188;SDS011;21762;54.480;18.556;2023-03-01T12:08:32;12.93;;;6.88;;
35188;SDS011;21762;54.480;18.556;2023-03-01T12:11:08;14.38;;;7.25;;
35188;SDS011;21762;54.480;18.556;2023-03-01T12:13:57;12.60;;;7.20;;
35188;SDS011;21762;54.480;18.556;2023-03-01T12:16:34;14.90;;;6.93;;
35188;SDS011;21762;54.480;18.556;2023-03-01T12:19:13;14.15;;;6.78;;
35188;SDS011;21762;54.480;18.556;2023-03-01T12:22:12;15.25;;;7.32;;
35188;SDS011;21762;54.480;18.556;2023-03-01T12:24:53;17.42;;;8.02;;
35188;SDS011;21762;54.480;18.556;2023-03-01T12:27:36;16.48;;;8.43;;
35188;SDS011;21762;54.480;18.556;2023-03-01T12:30:17;15.55;;;7.25;;
35188;SDS011;21762;54.480;18.556;2023-03-01T12:32:55;11.88;;;6.32;;
35188;SDS011;21762;54.480;18.556;2023-03-01T12:35:47;13.25;;;7.43;;
35188;SDS011;21762;54.480;18.556;2023-03-01T12:38:30;14.10;;;7.05;;
35188;SDS011;21762;54.480;18.556;2023-03-01T12:44:15;17.90;;;9.48;;
35188;SDS011;21762;54.480;18.556;2023-03-01T12:47:03;18.95;;;9.15;;
35188;SDS011;21762;54.480;18.556;2023-03-01T12:49:41;20.60;;;9.60;;
35188;SDS011;21762;54.480;18.556;2023-03-01T12:52:13;18.17;;;10.13;;
35188;SDS011;21762;54.480;18.556;2023-03-01T12:54:46;15.05;;;7.88;;
35188;SDS011;21762;54.480;18.556;2023-03-01T12:57:18;17.15;;;8.60;;
35188;SDS011;21762;54.480;18.556;2023-03-01T12:59:59;16.30;;;7.60;;
35188;SDS011;21762;54.480;18.556;2023-03-01T13:02:35;17.10;;;7.13;;
35188;SDS011;21762;54.480;18.556;2023-03-01T13:05:16;16.67;;;7.65;;
35188;SDS011;21762;54.480;18.556;2023-03-01T13:07:54;14.88;;;8.18;;
35188;SDS011;21762;54.480;18.556;2023-03-01T13:10:31;14.30;;;7.38;;
35188;SDS011;21762;54.480;18.556;2023-03-01T13:13:12;16.33;;;7.93;;
35188;SDS011;21762;54.480;18.556;2023-03-01T13:15:42;14.65;;;6.38;;
35188;SDS011;21762;54.480;18.556;2023-03-01T13:18:27;11.13;;;5.43;;
35188;SDS011;21762;54.480;18.556;2023-03-01T13:20:58;14.90;;;7.15;;
35188;SDS011;21762;54.480;18.556;2023-03-01T13:23:30;14.30;;;7.55;;
35188;SDS011;21762;54.480;18.556;2023-03-01T13:26:07;12.73;;;6.70;;
35188;SDS011;21762;54.480;18.556;2023-03-01T13:28:40;10.48;;;5.57;;
35188;SDS011;21762;54.480;18.556;2023-03-01T13:31:10;13.80;;;5.43;;
35188;SDS011;21762;54.480;18.556;2023-03-01T13:34:44;11.32;;;5.10;;
35188;SDS011;21762;54.480;18.556;2023-03-01T13:37:21;11.93;;;5.07;;
35188;SDS011;21762;54.480;18.556;2023-03-01T13:39:58;15.38;;;7.95;;
35188;SDS011;21762;54.480;18.556;2023-03-01T13:42:36;11.75;;;6.78;;
35188;SDS011;21762;54.480;18.556;2023-03-01T13:45:18;12.40;;;5.65;;
35188;SDS011;21762;54.480;18.556;2023-03-01T13:47:49;9.10;;;4.90;;
35188;SDS011;21762;54.480;18.556;2023-03-01T13:50:23;13.55;;;5.82;;
35188;SDS011;21762;54.480;18.556;2023-03-01T13:52:54;14.40;;;6.37;;
35188;SDS011;21762;54.480;18.556;2023-03-01T13:55:29;10.23;;;5.53;;
35188;SDS011;21762;54.480;18.556;2023-03-01T13:58:05;11.57;;;5.65;;
35188;SDS011;21762;54.480;18.556;2023-03-01T14:00:44;18.67;;;5.50;;
35188;SDS011;21762;54.480;18.556;2023-03-01T14:03:14;17.45;;;5.95;;
35188;SDS011;21762;54.480;18.556;2023-03-01T14:05:56;13.70;;;6.03;;
35188;SDS011;21762;54.480;18.556;2023-03-01T14:08:38;11.95;;;6.28;;
35188;SDS011;21762;54.480;18.556;2023-03-01T14:11:20;12.85;;;6.22;;
35188;SDS011;21762;54.480;18.556;2023-03-01T14:14:12;19.15;;;6.45;;
35188;SDS011;21762;54.480;18.556;2023-03-01T14:16:55;10.00;;;5.20;;
35188;SDS011;21762;54.480;18.556;2023-03-01T14:19:30;11.25;;;5.40;;
35188;SDS011;21762;54.480;18.556;2023-03-01T14:22:03;13.25;;;5.25;;
35188;SDS011;21762;54.480;18.556;2023-03-01T14:24:39;11.35;;;6.28;;
35188;SDS011;21762;54.480;18.556;2023-03-01T14:27:16;16.88;;;6.65;;
35188;SDS011;21762;54.480;18.556;2023-03-01T14:29:53;11.20;;;5.47;;
35188;SDS011;21762;54.480;18.556;2023-03-01T14:32:24;9.75;;;5.40;;
35188;SDS011;21762;54.480;18.556;2023-03-01T14:34:55;11.95;;;7.05;;
35188;SDS011;21762;54.480;18.556;2023-03-01T14:37:26;12.98;;;6.82;;
35188;SDS011;21762;54.480;18.556;2023-03-01T14:39:59;16.98;;;7.15;;
35188;SDS011;21762;54.480;18.556;2023-03-01T14:42:29;13.52;;;6.63;;
35188;SDS011;21762;54.480;18.556;2023-03-01T14:45:02;12.77;;;6.22;;
35188;SDS011;21762;54.480;18.556;2023-03-01T14:47:32;12.95;;;7.60;;
35188;SDS011;21762;54.480;18.556;2023-03-01T14:50:02;15.63;;;7.40;;
35188;SDS011;21762;54.480;18.556;2023-03-01T14:55:04;11.95;;;6.05;;
35188;SDS011;21762;54.480;18.556;2023-03-01T14:57:34;13.27;;;6.82;;
35188;SDS011;21762;54.480;18.556;2023-03-01T15:00:05;14.18;;;6.97;;
35188;SDS011;21762;54.480;18.556;2023-03-01T15:02:35;13.25;;;6.60;;